Etusivu
METAR-TAF:

METAR-TAF

Lentoasemat :

Tri-Township Airport

Savanna, Illinois, Yhdysvallat

Leveyspiiri: 42-02-45N, Pituuspiiri: 090-06-28W, korkeus merenpinnasta: 188 m

Tämänhetkinen sää

Tämä raportti tehtiin 21 minuuttia sitten, kello 13.55 UTC
Tuuli 6 kn idästä/kaakosta
Lämpötila 22°C
Kosteus 94%
Ilmanpaine 1012 hPa
Näkyvyys: 16.1 km
Pilvistä 3300 ft:n korkeudessa

METAR: KSFY 181355Z AUTO 12006KT 10SM OVC033 22/21 A2987 RMK AO2 LTG DSNT ALQS P0010

Aika: 09:16 (14:16 UTC)


TAF: puuttuu

Säähavainnot ja -ennusteet yli 4000 lentoasemalta (METAR- ja TAF-raportit).

Käytössä olevat sääasemat on merkitty karttaan keltaisilla ja punaisilla pisteillä.

Aseta hiiri pisteen päälle nähdäksesi sääaseman nimen.

Klikkaa sitten nähdäksesi säähavainnot ja -ennusteet.

Kartan vaihtaminen: klikkaa mustalla rastilla varustettuja vihreitä pisteitä, niin voit zoomata sisään; viivalla varustettua vihreää pistettä, niin voit zoomata ulos tai vihreitä nuolia, niin pääset viereisille kartoille.


METAR-TAF: